Foraker, Indiana
Current Conditions -  °F | °C
As of 1:03 PM on Thursday 29 Jan 2015 (Local Time) from KGSH Reporting Station
Haze Haze  
Wind Chill: 24°   Ceiling: 1300
Heat Index: 35°   Visibility: 6mi
Dew Point: 30°   Wind: 18mph
Humidity: 82%   Direction: 310°NW
Pressure: 29.79"   Gusts: NA
Location:  41.5799°N, 85.8299°W
Report Text: KGSH 291803Z AUTO 31016KT 6SM HZ BKN013 OVC018 02/M01 A2979 RMK AO2 T00171011
Loading
Personal Weather Stations






























Interactive Weather Map New forecast layout! Learn more

10-Day Weather Forecast

Advertisements
Track Severe Weather on mobile